createdAt,value
2019-03-23T00:02:10.492Z,45.78
2019-03-23T00:04:38.915Z,39.10
2019-03-23T00:07:07.386Z,45.28
2019-03-23T00:09:35.813Z,50.10
2019-03-23T00:12:04.328Z,47.98
2019-03-23T00:14:32.780Z,48.68
2019-03-23T00:17:01.219Z,45.55
2019-03-23T00:19:30.004Z,40.25
2019-03-23T00:21:58.447Z,45.08
2019-03-23T00:24:46.231Z,50.95
2019-03-23T00:27:14.660Z,39.73
2019-03-23T00:29:43.115Z,122.50
2019-03-23T00:32:13.092Z,75.35
2019-03-23T00:34:41.619Z,51.95
2019-03-23T00:37:10.042Z,47.05
2019-03-23T00:39:38.491Z,54.50
2019-03-23T00:42:26.265Z,47.08
2019-03-23T00:44:54.789Z,43.90
2019-03-23T00:47:23.226Z,43.38
2019-03-23T00:49:51.675Z,45.03
2019-03-23T00:52:20.096Z,43.08
2019-03-23T00:54:48.566Z,45.58
2019-03-23T00:57:17.092Z,41.48
2019-03-23T00:59:45.540Z,39.33
2019-03-23T01:02:13.997Z,45.38
2019-03-23T01:04:42.431Z,42.45
2019-03-23T01:07:10.944Z,49.13
2019-03-23T01:09:39.379Z,77.30
2019-03-23T01:12:07.811Z,72.60
2019-03-23T01:14:36.255Z,48.80
2019-03-23T01:17:04.783Z,38.87
2019-03-23T01:19:33.277Z,38.48
2019-03-23T01:22:21.066Z,45.25
2019-03-23T01:24:49.481Z,40.78
2019-03-23T01:27:17.907Z,48.63
2019-03-23T01:29:46.375Z,41.97
2019-03-23T01:32:14.839Z,48.30
2019-03-23T01:34:43.362Z,42.25
2019-03-23T01:37:11.800Z,42.87
2019-03-23T01:39:40.283Z,41.20
2019-03-23T01:42:08.706Z,40.35
2019-03-23T01:44:37.157Z,44.30
2019-03-23T01:47:05.615Z,48.95
2019-03-23T01:49:34.062Z,47.15
2019-03-23T01:52:02.549Z,44.27
2019-03-23T01:54:31.016Z,44.00
2019-03-23T01:56:59.465Z,43.90
2019-03-23T01:59:27.935Z,39.70
2019-03-23T02:01:56.391Z,44.38
2019-03-23T02:04:24.826Z,45.08
2019-03-23T02:06:53.259Z,40.43
2019-03-23T02:09:21.703Z,47.13
2019-03-23T02:11:50.124Z,42.67
2019-03-23T02:14:18.559Z,43.53
2019-03-23T02:16:47.006Z,46.67
2019-03-23T02:19:15.443Z,49.97
2019-03-23T02:21:43.943Z,44.98
2019-03-23T02:24:12.378Z,45.50
2019-03-23T02:26:40.804Z,47.03
2019-03-23T02:29:09.290Z,46.77
2019-03-23T02:31:37.752Z,43.87
2019-03-23T02:34:06.239Z,49.07
2019-03-23T02:36:34.737Z,47.38
2019-03-23T02:39:04.384Z,45.20
2019-03-23T02:41:32.897Z,39.17
2019-03-23T02:44:01.324Z,48.23
2019-03-23T02:46:29.829Z,47.23
2019-03-23T02:49:19.236Z,51.60
2019-03-23T02:51:47.663Z,42.43
2019-03-23T02:54:16.113Z,48.73
2019-03-23T02:56:44.637Z,40.70
2019-03-23T02:59:13.089Z,43.37
2019-03-23T03:01:41.623Z,46.27
2019-03-23T03:04:10.056Z,44.57
2019-03-23T03:06:38.483Z,43.27
2019-03-23T03:09:07.047Z,41.03
2019-03-23T03:11:35.512Z,44.70
2019-03-23T03:14:03.954Z,47.20
2019-03-23T03:16:32.405Z,38.43
2019-03-23T03:19:00.833Z,45.25
2019-03-23T03:21:29.336Z,39.67
2019-03-23T03:23:57.778Z,45.47
2019-03-23T03:26:26.219Z,47.27
2019-03-23T03:28:54.728Z,46.30
2019-03-23T03:31:26.180Z,43.07
2019-03-23T03:33:54.618Z,46.20
2019-03-23T03:36:23.178Z,42.63
2019-03-23T03:38:51.668Z,44.90
2019-03-23T03:41:20.159Z,46.07
2019-03-23T03:43:48.604Z,45.10
2019-03-23T03:46:17.117Z,41.63
2019-03-23T03:48:45.649Z,47.53
2019-03-23T03:51:14.105Z,41.67
2019-03-23T03:53:42.606Z,47.43
2019-03-23T03:56:11.033Z,52.93
2019-03-23T03:58:39.471Z,81.43
2019-03-23T04:01:07.909Z,62.60
2019-03-23T04:03:36.357Z,46.43
2019-03-23T04:06:04.868Z,44.10
2019-03-23T04:08:33.296Z,46.93
2019-03-23T04:11:01.799Z,40.47
2019-03-23T04:13:30.214Z,41.33
2019-03-23T04:15:58.680Z,39.97
2019-03-23T04:18:27.108Z,57.33
2019-03-23T04:20:55.547Z,58.33
2019-03-23T04:23:23.987Z,47.83
2019-03-23T04:25:52.445Z,46.87
2019-03-23T04:28:20.883Z,50.73
2019-03-23T04:30:49.347Z,48.57
2019-03-23T04:33:17.840Z,48.23
2019-03-23T04:36:05.616Z,47.57
2019-03-23T04:38:34.054Z,45.70
2019-03-23T04:41:02.505Z,45.27
2019-03-23T04:43:30.940Z,42.83
2019-03-23T04:45:59.387Z,43.97
2019-03-23T04:48:27.810Z,44.07
2019-03-23T04:50:56.251Z,46.17
2019-03-23T04:53:24.684Z,48.90
2019-03-23T04:55:55.372Z,42.10
2019-03-23T04:58:23.801Z,44.30
2019-03-23T05:00:52.245Z,44.60
2019-03-23T05:03:20.683Z,46.00
2019-03-23T05:05:49.124Z,43.97
2019-03-23T05:08:17.558Z,46.57
2019-03-23T05:10:45.997Z,49.40
2019-03-23T05:13:14.419Z,47.37
2019-03-23T05:15:42.869Z,43.60
2019-03-23T05:18:11.318Z,45.37
2019-03-23T05:20:39.744Z,41.57
2019-03-23T05:23:08.264Z,42.83
2019-03-23T05:25:36.680Z,44.23
2019-03-23T05:28:05.125Z,42.90
2019-03-23T05:30:33.553Z,44.80
2019-03-23T05:33:02.019Z,39.30
2019-03-23T05:35:30.492Z,39.30
2019-03-23T05:37:58.946Z,42.17
2019-03-23T05:40:27.368Z,46.43
2019-03-23T05:42:55.803Z,41.67
2019-03-23T05:45:24.255Z,40.63
2019-03-23T05:47:52.748Z,43.57
2019-03-23T05:50:21.194Z,46.67
2019-03-23T05:52:49.707Z,42.93
2019-03-23T05:55:18.381Z,46.50
2019-03-23T05:57:46.830Z,41.90
2019-03-23T06:00:17.002Z,41.43
2019-03-23T06:02:45.458Z,45.73
2019-03-23T06:05:13.868Z,39.78
2019-03-23T06:07:42.313Z,41.53
2019-03-23T06:10:10.981Z,41.43
2019-03-23T06:12:39.522Z,43.67
2019-03-23T06:15:08.276Z,44.47
2019-03-23T06:17:36.807Z,48.30
2019-03-23T06:20:07.009Z,44.70
2019-03-23T06:22:35.444Z,45.03
2019-03-23T06:25:05.818Z,44.83
2019-03-23T06:27:34.262Z,46.37
2019-03-23T06:30:02.695Z,41.00
2019-03-23T06:32:31.125Z,42.70
2019-03-23T06:34:59.554Z,43.83
2019-03-23T06:37:28.018Z,45.90
2019-03-23T06:39:56.497Z,50.30
2019-03-23T06:42:24.947Z,50.95
2019-03-23T06:44:53.396Z,46.57
2019-03-23T06:47:21.839Z,47.07
2019-03-23T06:49:50.362Z,51.97
2019-03-23T06:52:18.970Z,49.15
2019-03-23T06:54:47.431Z,56.55
2019-03-23T06:57:15.948Z,50.85
2019-03-23T06:59:44.387Z,46.70
2019-03-23T07:02:13.080Z,48.40
2019-03-23T07:04:41.510Z,47.53
2019-03-23T07:07:09.966Z,51.18
2019-03-23T07:09:38.397Z,46.37
2019-03-23T07:12:06.828Z,48.93
2019-03-23T07:14:35.284Z,49.53
2019-03-23T07:17:03.738Z,45.95
2019-03-23T07:19:32.185Z,47.65
2019-03-23T07:22:00.626Z,49.55
2019-03-23T07:24:29.074Z,47.95
2019-03-23T07:26:57.504Z,49.63
2019-03-23T07:29:25.978Z,49.90
2019-03-23T07:32:05.269Z,48.23
2019-03-23T07:34:24.565Z,44.60
2019-03-23T07:36:53.010Z,52.17
2019-03-23T07:39:27.192Z,49.23
2019-03-23T07:41:51.858Z,48.73
2019-03-23T07:44:20.325Z,50.60
2019-03-23T07:46:49.095Z,46.98
2019-03-23T07:49:17.527Z,50.90
2019-03-23T07:51:45.978Z,53.63
2019-03-23T07:54:14.491Z,48.17
2019-03-23T07:56:42.926Z,50.83
2019-03-23T07:59:11.372Z,53.73
2019-03-23T08:01:39.810Z,46.98
2019-03-23T08:04:08.279Z,44.98
2019-03-23T08:06:36.702Z,49.15
2019-03-23T08:09:06.519Z,47.80
2019-03-23T08:11:34.963Z,45.43
2019-03-23T08:14:03.391Z,45.28
2019-03-23T08:16:31.850Z,44.63
2019-03-23T08:19:00.299Z,43.40
2019-03-23T08:21:28.723Z,42.48
2019-03-23T08:23:57.187Z,56.63
2019-03-23T08:26:25.610Z,49.15
2019-03-23T08:28:54.052Z,43.73
2019-03-23T08:31:22.496Z,46.53
2019-03-23T08:33:52.115Z,44.80
2019-03-23T08:36:20.669Z,44.10
2019-03-23T08:38:49.115Z,47.38
2019-03-23T08:41:17.546Z,44.98
2019-03-23T08:43:46.005Z,49.58
2019-03-23T08:46:15.746Z,56.35
2019-03-23T08:48:44.179Z,44.53
2019-03-23T08:51:14.521Z,41.08
2019-03-23T08:53:42.959Z,37.15
2019-03-23T08:56:11.450Z,36.35
2019-03-23T08:58:38.850Z,36.35
2019-03-23T09:01:07.289Z,32.35
2019-03-23T09:03:35.756Z,32.98
2019-03-23T09:06:04.200Z,29.75
2019-03-23T09:08:32.662Z,25.20
2019-03-23T09:11:01.091Z,40.92
2019-03-23T09:13:40.048Z,40.85
2019-03-23T09:15:59.701Z,29.50
2019-03-23T09:18:28.146Z,40.73
2019-03-23T09:20:56.585Z,43.28
2019-03-23T09:23:25.017Z,84.22
2019-03-23T09:25:53.541Z,41.20
2019-03-23T09:28:22.021Z,42.20
2019-03-23T09:30:50.472Z,26.82
2019-03-23T09:33:18.900Z,35.13
2019-03-23T09:35:47.345Z,27.30
2019-03-23T09:38:15.815Z,21.60
2019-03-23T09:40:44.251Z,26.12
2019-03-23T09:43:12.696Z,18.10
2019-03-23T09:45:41.146Z,22.45
2019-03-23T09:48:09.598Z,22.07
2019-03-23T09:50:38.111Z,17.73
2019-03-23T09:53:06.550Z,17.65
2019-03-23T09:55:35.065Z,15.80
2019-03-23T09:58:03.512Z,19.32
2019-03-23T10:00:31.967Z,14.70
2019-03-23T10:03:00.425Z,14.53
2019-03-23T10:05:28.873Z,14.80
2019-03-23T10:07:57.331Z,16.85
2019-03-23T10:10:25.793Z,15.13
2019-03-23T10:12:54.213Z,12.35
2019-03-23T10:15:22.664Z,14.20
2019-03-23T10:17:51.101Z,20.10
2019-03-23T10:20:19.555Z,15.50
2019-03-23T10:22:48.008Z,12.23
2019-03-23T10:25:16.451Z,10.35
2019-03-23T10:27:44.893Z,13.83
2019-03-23T10:30:13.574Z,14.03
2019-03-23T10:32:42.008Z,14.28
2019-03-23T10:35:10.591Z,12.20
2019-03-23T10:37:39.116Z,11.57
2019-03-23T10:40:09.205Z,13.90
2019-03-23T10:42:38.007Z,12.35
2019-03-23T10:45:08.704Z,12.75
2019-03-23T10:47:37.319Z,16.77
2019-03-23T10:50:06.551Z,17.00
2019-03-23T10:52:35.427Z,19.32
2019-03-23T10:55:05.413Z,14.13
2019-03-23T10:57:33.856Z,14.58
2019-03-23T11:00:02.280Z,15.03
2019-03-23T11:02:30.718Z,12.93
2019-03-23T11:04:59.201Z,11.03
2019-03-23T11:07:27.645Z,13.48
2019-03-23T11:09:56.096Z,17.15
2019-03-23T11:12:25.273Z,14.33
2019-03-23T11:14:54.066Z,11.80
2019-03-23T11:17:22.584Z,16.00
2019-03-23T11:19:54.240Z,13.13
2019-03-23T11:22:21.810Z,17.25
2019-03-23T11:24:50.392Z,16.50
2019-03-23T11:27:18.906Z,16.77
2019-03-23T11:29:47.453Z,17.07
2019-03-23T11:32:15.940Z,14.30
2019-03-23T11:34:44.423Z,15.58
2019-03-23T11:37:12.915Z,15.35
2019-03-23T11:39:41.404Z,14.20
2019-03-23T11:42:09.862Z,15.05
2019-03-23T11:44:38.381Z,18.35
2019-03-23T11:47:06.848Z,16.40
2019-03-23T11:49:35.291Z,19.42
2019-03-23T11:52:03.821Z,19.92
2019-03-23T11:54:32.380Z,19.17
2019-03-23T11:57:00.857Z,18.23
2019-03-23T11:59:29.308Z,16.70
2019-03-23T12:01:57.738Z,18.55
2019-03-23T12:04:26.180Z,16.37
2019-03-23T12:06:54.680Z,27.67
2019-03-23T12:09:23.171Z,16.77
2019-03-23T12:11:51.613Z,15.83
2019-03-23T12:14:20.057Z,16.55
2019-03-23T12:16:48.515Z,22.82
2019-03-23T12:19:16.992Z,19.73
2019-03-23T12:21:45.463Z,25.35
2019-03-23T12:24:13.936Z,24.85
2019-03-23T12:26:42.400Z,20.85
2019-03-23T12:29:10.902Z,20.77
2019-03-23T12:31:39.385Z,21.65
2019-03-23T12:34:07.868Z,19.52
2019-03-23T12:36:36.371Z,25.70
2019-03-23T12:39:06.672Z,21.37
2019-03-23T12:41:35.195Z,22.22
2019-03-23T12:44:03.716Z,22.67
2019-03-23T12:46:32.197Z,14.93
2019-03-23T12:49:00.655Z,13.68
2019-03-23T12:51:29.102Z,15.03
2019-03-23T12:53:57.576Z,15.40
2019-03-23T12:56:26.072Z,14.98
2019-03-23T12:58:54.572Z,14.07
2019-03-23T13:01:23.086Z,16.93
2019-03-23T13:03:51.537Z,15.63
2019-03-23T13:06:20.010Z,16.93
2019-03-23T13:08:48.510Z,13.00
2019-03-23T13:11:23.293Z,14.38
2019-03-23T13:13:47.185Z,13.72
2019-03-23T13:16:15.707Z,13.72
2019-03-23T13:18:44.516Z,18.30
2019-03-23T13:21:13.027Z,17.30
2019-03-23T13:23:41.517Z,20.37
2019-03-23T13:26:10.344Z,19.32
2019-03-23T13:28:38.882Z,17.37
2019-03-23T13:31:07.321Z,17.52
2019-03-23T13:33:35.772Z,16.12
2019-03-23T13:36:04.483Z,17.05
2019-03-23T13:38:32.960Z,15.10
2019-03-23T13:41:01.777Z,17.37
2019-03-23T13:43:30.249Z,16.95
2019-03-23T13:45:58.707Z,16.02
2019-03-23T13:48:27.155Z,16.57
2019-03-23T13:51:01.390Z,12.35
2019-03-23T13:53:29.918Z,13.68
2019-03-23T13:55:58.388Z,15.25
2019-03-23T13:58:26.873Z,14.83
2019-03-23T14:00:55.324Z,16.05
2019-03-23T14:03:23.782Z,18.87
2019-03-23T14:05:52.261Z,17.82
2019-03-23T14:08:20.704Z,17.15
2019-03-23T14:10:49.184Z,15.23
2019-03-23T14:13:17.632Z,17.20
2019-03-23T14:15:46.306Z,15.90
2019-03-23T14:18:14.781Z,16.12
2019-03-23T14:20:43.263Z,18.50
2019-03-23T14:23:11.713Z,16.75
2019-03-23T14:25:40.168Z,14.40
2019-03-23T14:28:08.630Z,16.70
2019-03-23T14:30:37.080Z,20.52
2019-03-23T14:33:05.541Z,16.05
2019-03-23T14:35:33.997Z,19.32
2019-03-23T14:38:02.465Z,18.42
2019-03-23T14:40:30.933Z,15.50
2019-03-23T14:43:01.651Z,17.65
2019-03-23T14:45:30.153Z,19.20
2019-03-23T14:47:58.725Z,16.25
2019-03-23T14:50:27.275Z,18.75
2019-03-23T14:52:55.948Z,20.12
2019-03-23T14:55:24.514Z,16.60
2019-03-23T14:57:53.008Z,17.37
2019-03-23T15:00:29.354Z,18.62
2019-03-23T15:02:57.803Z,22.10
2019-03-23T15:05:26.365Z,21.07
2019-03-23T15:07:54.888Z,22.05
2019-03-23T15:10:23.385Z,24.52
2019-03-23T15:12:51.902Z,20.02
2019-03-23T15:15:20.362Z,19.27
2019-03-23T15:17:49.248Z,19.95
2019-03-23T15:20:17.778Z,16.90
2019-03-23T15:22:46.259Z,20.82
2019-03-23T15:25:14.741Z,18.30
2019-03-23T15:27:43.190Z,21.87
2019-03-23T15:30:11.808Z,19.85
2019-03-23T15:32:40.305Z,24.02
2019-03-23T15:35:09.016Z,22.65
2019-03-23T15:37:37.673Z,21.33
2019-03-23T15:40:07.476Z,25.88
2019-03-23T15:42:36.073Z,29.07
2019-03-23T15:45:07.450Z,23.62
2019-03-23T15:47:36.049Z,25.62
2019-03-23T15:50:06.662Z,24.40
2019-03-23T15:52:35.123Z,23.70
2019-03-23T15:55:04.480Z,25.72
2019-03-23T15:57:32.925Z,28.73
2019-03-23T16:00:01.399Z,27.55
2019-03-23T16:02:31.385Z,29.23
2019-03-23T16:04:59.837Z,26.87
2019-03-23T16:07:29.743Z,31.82
2019-03-23T16:09:58.440Z,25.40
2019-03-23T16:12:34.488Z,22.73
2019-03-23T16:14:57.107Z,24.12
2019-03-23T16:17:25.550Z,26.23
2019-03-23T16:19:54.000Z,26.93
2019-03-23T16:22:22.478Z,39.40
2019-03-23T16:24:50.903Z,38.23
2019-03-23T16:27:19.379Z,60.52
2019-03-23T16:29:47.818Z,40.10
2019-03-23T16:32:16.277Z,35.52
2019-03-23T16:34:44.700Z,32.70
2019-03-23T16:37:13.151Z,36.08
2019-03-23T16:39:41.572Z,35.83
2019-03-23T16:42:10.035Z,36.93
2019-03-23T16:44:38.488Z,40.05
2019-03-23T16:47:06.939Z,36.28
2019-03-23T16:49:35.387Z,40.45
2019-03-23T16:52:03.903Z,47.83
2019-03-23T16:54:32.346Z,44.73
2019-03-23T16:57:00.814Z,45.58
2019-03-23T16:59:29.279Z,51.90
2019-03-23T17:01:57.800Z,53.20
2019-03-23T17:04:26.314Z,57.65
2019-03-23T17:06:55.017Z,61.88
2019-03-23T17:09:23.462Z,75.60
2019-03-23T17:11:52.791Z,104.03
2019-03-23T17:14:21.435Z,74.80
2019-03-23T17:16:49.876Z,74.15
2019-03-23T17:19:18.365Z,71.80
2019-03-23T17:21:46.953Z,77.85
2019-03-23T17:24:15.384Z,76.10
2019-03-23T17:26:43.825Z,74.77
2019-03-23T17:29:12.276Z,75.45
2019-03-23T17:31:40.726Z,77.80
2019-03-23T17:34:09.181Z,75.25
2019-03-23T17:36:37.614Z,77.87
2019-03-23T17:39:06.633Z,76.92
2019-03-23T17:41:35.065Z,78.90
2019-03-23T17:44:03.509Z,81.95
2019-03-23T17:46:31.979Z,84.60
2019-03-23T17:49:00.431Z,76.53
2019-03-23T17:51:28.968Z,74.90
2019-03-23T17:53:58.858Z,73.70
2019-03-23T17:56:27.627Z,75.67
2019-03-23T17:58:56.091Z,76.28
2019-03-23T18:01:24.576Z,75.12
2019-03-23T18:03:53.018Z,73.72
2019-03-23T18:06:21.448Z,70.90
2019-03-23T18:08:49.894Z,71.33
2019-03-23T18:11:18.356Z,76.07
2019-03-23T18:13:46.803Z,70.28
2019-03-23T18:16:15.255Z,71.17
2019-03-23T18:18:43.728Z,76.95
2019-03-23T18:21:12.216Z,75.00
2019-03-23T18:23:40.666Z,73.87
2019-03-23T18:26:09.302Z,69.82
2019-03-23T18:28:37.804Z,77.15
2019-03-23T18:31:06.243Z,75.47
2019-03-23T18:33:34.717Z,72.25
2019-03-23T18:36:03.216Z,74.82
2019-03-23T18:38:31.751Z,90.28
2019-03-23T18:41:00.255Z,100.75
2019-03-23T18:43:28.685Z,90.20
2019-03-23T18:45:57.142Z,86.72
2019-03-23T18:48:25.591Z,83.67
2019-03-23T18:50:54.117Z,81.37
2019-03-23T18:53:24.011Z,69.70
2019-03-23T18:55:52.856Z,63.13
2019-03-23T18:58:21.290Z,62.48
2019-03-23T19:00:49.733Z,65.62
2019-03-23T19:03:18.161Z,62.30
2019-03-23T19:05:46.629Z,61.75
2019-03-23T19:08:15.066Z,61.20
2019-03-23T19:10:43.504Z,58.13
2019-03-23T19:13:11.958Z,57.53
2019-03-23T19:15:40.410Z,58.05
2019-03-23T19:18:08.856Z,60.80
2019-03-23T19:20:37.303Z,64.90
2019-03-23T19:23:05.809Z,66.37
2019-03-23T19:25:34.273Z,62.98
2019-03-23T19:28:02.706Z,63.90
2019-03-23T19:30:31.144Z,59.60
2019-03-23T19:32:59.585Z,60.83
2019-03-23T19:35:28.026Z,64.53
2019-03-23T19:37:56.459Z,62.75
2019-03-23T19:40:25.165Z,53.28
2019-03-23T19:42:53.602Z,58.28
2019-03-23T19:45:22.061Z,58.50
2019-03-23T19:47:50.472Z,59.35
2019-03-23T19:50:18.925Z,59.55
2019-03-23T19:52:47.366Z,58.90
2019-03-23T19:55:15.816Z,62.98
2019-03-23T19:57:44.272Z,68.00
2019-03-23T20:00:13.253Z,60.52
2019-03-23T20:02:41.754Z,66.65
2019-03-23T20:05:10.362Z,60.83
2019-03-23T20:07:38.783Z,61.08
2019-03-23T20:10:09.336Z,69.42
2019-03-23T20:12:38.029Z,64.72
2019-03-23T20:15:08.475Z,63.65
2019-03-23T20:17:36.979Z,59.38
2019-03-23T20:20:07.877Z,60.67
2019-03-23T20:22:36.318Z,79.53
2019-03-23T20:25:06.660Z,68.07
2019-03-23T20:27:35.118Z,65.97
2019-03-23T20:30:05.563Z,63.73
2019-03-23T20:32:33.996Z,64.85
2019-03-23T20:35:02.461Z,59.75
2019-03-23T20:37:30.895Z,64.10
2019-03-23T20:39:59.332Z,65.25
2019-03-23T20:42:27.778Z,58.60
2019-03-23T20:44:56.213Z,62.53
2019-03-23T20:47:24.657Z,63.85
2019-03-23T20:49:53.452Z,69.15
2019-03-23T20:52:21.888Z,66.42
2019-03-23T20:54:50.338Z,67.87
2019-03-23T20:57:23.993Z,72.32
2019-03-23T20:59:48.949Z,68.42
2019-03-23T21:02:17.425Z,65.08
2019-03-23T21:04:45.856Z,65.67
2019-03-23T21:07:14.297Z,67.12
2019-03-23T21:09:42.762Z,73.83
2019-03-23T21:12:11.251Z,68.85
2019-03-23T21:14:39.681Z,71.60
2019-03-23T21:17:08.140Z,66.85
2019-03-23T21:19:36.570Z,71.12
2019-03-23T21:22:05.025Z,68.78
2019-03-23T21:24:33.463Z,66.10
2019-03-23T21:27:01.958Z,63.98
2019-03-23T21:29:30.447Z,69.22
2019-03-23T21:31:58.904Z,63.90
2019-03-23T21:34:27.338Z,66.02
2019-03-23T21:36:55.790Z,72.67
2019-03-23T21:39:24.230Z,70.95
2019-03-23T21:41:52.759Z,64.22
2019-03-23T21:44:30.712Z,67.35
2019-03-23T21:46:51.371Z,67.53
2019-03-23T21:49:19.811Z,66.75
2019-03-23T21:51:48.509Z,65.50
2019-03-23T21:54:16.996Z,64.77
2019-03-23T21:56:45.538Z,65.47
2019-03-23T21:59:13.972Z,64.65
2019-03-23T22:01:42.507Z,69.47
2019-03-23T22:04:11.207Z,66.55
2019-03-23T22:06:39.892Z,62.20
2019-03-23T22:09:08.881Z,69.95
2019-03-23T22:11:37.440Z,62.48
2019-03-23T22:14:05.953Z,62.58
2019-03-23T22:16:34.425Z,63.55
2019-03-23T22:19:02.889Z,69.65
2019-03-23T22:21:31.515Z,60.85
2019-03-23T22:23:59.984Z,65.05
2019-03-23T22:26:28.427Z,67.80
2019-03-23T22:28:56.869Z,64.77
2019-03-23T22:31:25.378Z,62.38
2019-03-23T22:33:53.823Z,68.25
2019-03-23T22:36:22.340Z,66.77
2019-03-23T22:38:51.271Z,64.00
2019-03-23T22:41:19.808Z,69.72
2019-03-23T22:43:48.352Z,71.75
2019-03-23T22:46:16.792Z,71.87
2019-03-23T22:48:46.097Z,67.65
2019-03-23T22:51:14.533Z,69.82
2019-03-23T22:53:42.988Z,61.45
2019-03-23T22:56:11.482Z,61.95
2019-03-23T22:58:45.167Z,68.25
2019-03-23T23:01:13.632Z,65.03
2019-03-23T23:03:42.226Z,67.08
2019-03-23T23:06:10.656Z,65.95
2019-03-23T23:08:39.192Z,73.35
2019-03-23T23:11:07.633Z,74.90
2019-03-23T23:13:36.152Z,73.75
2019-03-23T23:16:04.657Z,74.60
2019-03-23T23:18:33.116Z,73.37
2019-03-23T23:21:01.647Z,73.17
2019-03-23T23:23:30.080Z,68.75
2019-03-23T23:25:58.528Z,67.50
2019-03-23T23:28:26.971Z,67.25
2019-03-23T23:30:55.483Z,68.30
2019-03-23T23:33:23.934Z,68.70
2019-03-23T23:35:52.392Z,72.53
2019-03-23T23:38:20.877Z,69.25
2019-03-23T23:40:49.308Z,64.12
2019-03-23T23:43:17.821Z,66.62
2019-03-23T23:45:46.260Z,68.70
2019-03-23T23:48:14.703Z,66.80
2019-03-23T23:50:43.165Z,66.72
2019-03-23T23:53:11.633Z,71.30
2019-03-23T23:55:40.056Z,64.58
2019-03-23T23:58:08.511Z,63.50
